sensor_id;sensor_type;location;lat;lon;timestamp;P1;durP1;ratioP1;P2;durP2;ratioP2
9306;SDS011;4691;47.612;7.610;2022-11-02T00:01:25;25.95;;;10.45;;
9306;SDS011;4691;47.612;7.610;2022-11-02T00:03:53;25.95;;;11.48;;
9306;SDS011;4691;47.612;7.610;2022-11-02T00:06:19;26.67;;;10.55;;
9306;SDS011;4691;47.612;7.610;2022-11-02T00:08:44;26.67;;;11.07;;
9306;SDS011;4691;47.612;7.610;2022-11-02T00:11:10;25.13;;;10.43;;
9306;SDS011;4691;47.612;7.610;2022-11-02T00:13:35;28.80;;;10.57;;
9306;SDS011;4691;47.612;7.610;2022-11-02T00:16:04;28.45;;;10.70;;
9306;SDS011;4691;47.612;7.610;2022-11-02T00:18:34;33.67;;;11.25;;
9306;SDS011;4691;47.612;7.610;2022-11-02T00:21:00;33.50;;;10.77;;
9306;SDS011;4691;47.612;7.610;2022-11-02T00:23:27;31.45;;;10.95;;
9306;SDS011;4691;47.612;7.610;2022-11-02T00:25:53;36.85;;;11.63;;
9306;SDS011;4691;47.612;7.610;2022-11-02T00:28:21;26.00;;;9.70;;
9306;SDS011;4691;47.612;7.610;2022-11-02T00:30:46;24.73;;;11.38;;
9306;SDS011;4691;47.612;7.610;2022-11-02T00:33:11;23.17;;;10.15;;
9306;SDS011;4691;47.612;7.610;2022-11-02T00:35:37;21.67;;;10.38;;
9306;SDS011;4691;47.612;7.610;2022-11-02T00:38:03;25.75;;;11.38;;
9306;SDS011;4691;47.612;7.610;2022-11-02T00:40:29;23.55;;;9.75;;
9306;SDS011;4691;47.612;7.610;2022-11-02T00:42:55;19.98;;;10.77;;
9306;SDS011;4691;47.612;7.610;2022-11-02T00:45:20;21.42;;;9.75;;
9306;SDS011;4691;47.612;7.610;2022-11-02T00:47:46;25.52;;;11.73;;
9306;SDS011;4691;47.612;7.610;2022-11-02T00:50:12;21.80;;;9.27;;
9306;SDS011;4691;47.612;7.610;2022-11-02T00:52:38;22.23;;;10.55;;
9306;SDS011;4691;47.612;7.610;2022-11-02T00:55:04;21.65;;;10.70;;
9306;SDS011;4691;47.612;7.610;2022-11-02T00:57:30;26.35;;;11.18;;
9306;SDS011;4691;47.612;7.610;2022-11-02T00:59:56;27.30;;;11.15;;
9306;SDS011;4691;47.612;7.610;2022-11-02T01:02:21;24.30;;;9.80;;
9306;SDS011;4691;47.612;7.610;2022-11-02T01:04:46;26.92;;;11.68;;
9306;SDS011;4691;47.612;7.610;2022-11-02T01:07:11;22.85;;;10.93;;
9306;SDS011;4691;47.612;7.610;2022-11-02T01:09:37;22.42;;;11.32;;
9306;SDS011;4691;47.612;7.610;2022-11-02T01:12:02;21.25;;;9.63;;
9306;SDS011;4691;47.612;7.610;2022-11-02T01:14:29;30.65;;;11.02;;
9306;SDS011;4691;47.612;7.610;2022-11-02T01:16:55;26.00;;;11.35;;
9306;SDS011;4691;47.612;7.610;2022-11-02T01:19:21;39.42;;;9.68;;
9306;SDS011;4691;47.612;7.610;2022-11-02T01:21:47;32.10;;;11.48;;
9306;SDS011;4691;47.612;7.610;2022-11-02T01:24:13;24.58;;;10.07;;
9306;SDS011;4691;47.612;7.610;2022-11-02T01:26:38;26.55;;;9.10;;
9306;SDS011;4691;47.612;7.610;2022-11-02T01:29:03;25.58;;;9.95;;
9306;SDS011;4691;47.612;7.610;2022-11-02T01:31:28;20.15;;;9.25;;
9306;SDS011;4691;47.612;7.610;2022-11-02T01:33:54;17.15;;;7.55;;
9306;SDS011;4691;47.612;7.610;2022-11-02T01:36:19;21.92;;;8.00;;
9306;SDS011;4691;47.612;7.610;2022-11-02T01:38:45;16.90;;;7.63;;
9306;SDS011;4691;47.612;7.610;2022-11-02T01:41:11;16.63;;;7.85;;
9306;SDS011;4691;47.612;7.610;2022-11-02T01:43:36;18.15;;;7.28;;
9306;SDS011;4691;47.612;7.610;2022-11-02T01:48:52;17.38;;;7.57;;
9306;SDS011;4691;47.612;7.610;2022-11-02T01:51:25;13.82;;;6.68;;
9306;SDS011;4691;47.612;7.610;2022-11-02T01:53:54;15.77;;;6.97;;
9306;SDS011;4691;47.612;7.610;2022-11-02T01:56:24;22.73;;;7.32;;
9306;SDS011;4691;47.612;7.610;2022-11-02T01:58:57;17.00;;;7.22;;
9306;SDS011;4691;47.612;7.610;2022-11-02T02:01:26;17.17;;;6.45;;
9306;SDS011;4691;47.612;7.610;2022-11-02T02:03:52;18.55;;;7.22;;
9306;SDS011;4691;47.612;7.610;2022-11-02T02:06:18;16.40;;;6.53;;
9306;SDS011;4691;47.612;7.610;2022-11-02T02:08:45;22.73;;;7.32;;
9306;SDS011;4691;47.612;7.610;2022-11-02T02:14:18;19.77;;;7.18;;
9306;SDS011;4691;47.612;7.610;2022-11-02T02:19:34;13.73;;;6.85;;
9306;SDS011;4691;47.612;7.610;2022-11-02T02:25:08;24.13;;;10.23;;
9306;SDS011;4691;47.612;7.610;2022-11-02T02:27:54;21.35;;;8.98;;
9306;SDS011;4691;47.612;7.610;2022-11-02T02:30:26;23.23;;;9.38;;
9306;SDS011;4691;47.612;7.610;2022-11-02T02:32:56;24.38;;;10.85;;
9306;SDS011;4691;47.612;7.610;2022-11-02T02:35:34;21.23;;;9.02;;
9306;SDS011;4691;47.612;7.610;2022-11-02T02:38:20;18.30;;;9.65;;
9306;SDS011;4691;47.612;7.610;2022-11-02T02:40:55;23.33;;;10.80;;
9306;SDS011;4691;47.612;7.610;2022-11-02T02:43:31;25.40;;;10.18;;
9306;SDS011;4691;47.612;7.610;2022-11-02T02:46:04;18.98;;;9.52;;
9306;SDS011;4691;47.612;7.610;2022-11-02T02:48:33;24.23;;;10.15;;
9306;SDS011;4691;47.612;7.610;2022-11-02T02:51:07;24.00;;;9.07;;
9306;SDS011;4691;47.612;7.610;2022-11-02T02:53:36;23.67;;;10.35;;
9306;SDS011;4691;47.612;7.610;2022-11-02T02:56:05;28.27;;;10.32;;
9306;SDS011;4691;47.612;7.610;2022-11-02T02:58:34;20.67;;;10.48;;
9306;SDS011;4691;47.612;7.610;2022-11-02T03:01:04;24.27;;;11.13;;
9306;SDS011;4691;47.612;7.610;2022-11-02T03:03:30;18.40;;;9.77;;
9306;SDS011;4691;47.612;7.610;2022-11-02T03:06:09;28.10;;;10.30;;
9306;SDS011;4691;47.612;7.610;2022-11-02T03:08:40;26.17;;;11.25;;
9306;SDS011;4691;47.612;7.610;2022-11-02T03:11:12;19.95;;;10.50;;
9306;SDS011;4691;47.612;7.610;2022-11-02T03:13:53;29.70;;;10.82;;
9306;SDS011;4691;47.612;7.610;2022-11-02T03:24:49;16.35;;;8.98;;
9306;SDS011;4691;47.612;7.610;2022-11-02T03:27:30;28.33;;;11.70;;
9306;SDS011;4691;47.612;7.610;2022-11-02T03:30:06;23.08;;;10.15;;
9306;SDS011;4691;47.612;7.610;2022-11-02T03:32:44;26.65;;;10.75;;
9306;SDS011;4691;47.612;7.610;2022-11-02T03:38:18;28.23;;;10.90;;
9306;SDS011;4691;47.612;7.610;2022-11-02T03:40:49;21.00;;;10.57;;
9306;SDS011;4691;47.612;7.610;2022-11-02T03:45:51;21.80;;;9.18;;
9306;SDS011;4691;47.612;7.610;2022-11-02T03:48:20;25.90;;;10.50;;
9306;SDS011;4691;47.612;7.610;2022-11-02T03:50:49;23.23;;;11.10;;
9306;SDS011;4691;47.612;7.610;2022-11-02T03:53:18;19.88;;;9.52;;
9306;SDS011;4691;47.612;7.610;2022-11-02T03:55:58;21.40;;;10.38;;
9306;SDS011;4691;47.612;7.610;2022-11-02T03:58:28;21.17;;;10.32;;
9306;SDS011;4691;47.612;7.610;2022-11-02T04:00:54;24.92;;;11.05;;
9306;SDS011;4691;47.612;7.610;2022-11-02T04:03:23;25.13;;;11.32;;
9306;SDS011;4691;47.612;7.610;2022-11-02T04:05:49;29.73;;;10.32;;
9306;SDS011;4691;47.612;7.610;2022-11-02T04:08:16;22.67;;;10.70;;
9306;SDS011;4691;47.612;7.610;2022-11-02T04:10:47;28.30;;;12.20;;
9306;SDS011;4691;47.612;7.610;2022-11-02T04:13:32;25.05;;;11.93;;
9306;SDS011;4691;47.612;7.610;2022-11-02T04:16:17;27.80;;;10.63;;
9306;SDS011;4691;47.612;7.610;2022-11-02T04:18:42;17.75;;;8.38;;
9306;SDS011;4691;47.612;7.610;2022-11-02T04:21:26;23.60;;;9.93;;
9306;SDS011;4691;47.612;7.610;2022-11-02T04:23:52;24.40;;;9.68;;
9306;SDS011;4691;47.612;7.610;2022-11-02T04:26:36;18.00;;;9.48;;
9306;SDS011;4691;47.612;7.610;2022-11-02T04:29:02;20.15;;;8.50;;
9306;SDS011;4691;47.612;7.610;2022-11-02T04:31:28;14.35;;;7.88;;
9306;SDS011;4691;47.612;7.610;2022-11-02T04:33:54;16.33;;;8.70;;
9306;SDS011;4691;47.612;7.610;2022-11-02T04:36:19;19.52;;;8.45;;
9306;SDS011;4691;47.612;7.610;2022-11-02T04:38:45;22.00;;;9.68;;
9306;SDS011;4691;47.612;7.610;2022-11-02T04:41:14;14.57;;;7.85;;
9306;SDS011;4691;47.612;7.610;2022-11-02T04:44:00;21.63;;;8.73;;
9306;SDS011;4691;47.612;7.610;2022-11-02T04:46:27;17.90;;;8.93;;
9306;SDS011;4691;47.612;7.610;2022-11-02T04:48:56;20.77;;;9.93;;
9306;SDS011;4691;47.612;7.610;2022-11-02T04:51:21;16.77;;;8.00;;
9306;SDS011;4691;47.612;7.610;2022-11-02T04:53:48;29.38;;;9.98;;
9306;SDS011;4691;47.612;7.610;2022-11-02T04:56:15;33.45;;;10.30;;
9306;SDS011;4691;47.612;7.610;2022-11-02T04:58:40;38.28;;;10.82;;
9306;SDS011;4691;47.612;7.610;2022-11-02T05:01:06;33.63;;;10.60;;
9306;SDS011;4691;47.612;7.610;2022-11-02T05:03:35;24.17;;;8.57;;
9306;SDS011;4691;47.612;7.610;2022-11-02T05:06:00;27.80;;;9.73;;
9306;SDS011;4691;47.612;7.610;2022-11-02T05:08:26;29.45;;;8.70;;
9306;SDS011;4691;47.612;7.610;2022-11-02T05:10:55;17.52;;;7.78;;
9306;SDS011;4691;47.612;7.610;2022-11-02T05:13:22;18.83;;;7.95;;
9306;SDS011;4691;47.612;7.610;2022-11-02T05:15:48;21.48;;;8.90;;
9306;SDS011;4691;47.612;7.610;2022-11-02T05:18:13;17.25;;;6.65;;
9306;SDS011;4691;47.612;7.610;2022-11-02T05:20:39;16.33;;;7.68;;
9306;SDS011;4691;47.612;7.610;2022-11-02T05:23:04;16.80;;;6.90;;
9306;SDS011;4691;47.612;7.610;2022-11-02T05:25:30;22.52;;;8.68;;
9306;SDS011;4691;47.612;7.610;2022-11-02T05:27:56;20.10;;;7.28;;
9306;SDS011;4691;47.612;7.610;2022-11-02T05:30:22;19.65;;;8.43;;
9306;SDS011;4691;47.612;7.610;2022-11-02T05:32:48;23.65;;;9.05;;
9306;SDS011;4691;47.612;7.610;2022-11-02T05:35:13;23.67;;;8.73;;
9306;SDS011;4691;47.612;7.610;2022-11-02T05:37:39;22.48;;;8.15;;
9306;SDS011;4691;47.612;7.610;2022-11-02T05:40:04;23.13;;;9.00;;
9306;SDS011;4691;47.612;7.610;2022-11-02T05:42:30;20.67;;;8.07;;
9306;SDS011;4691;47.612;7.610;2022-11-02T05:44:55;18.27;;;8.45;;
9306;SDS011;4691;47.612;7.610;2022-11-02T05:47:21;17.80;;;7.78;;
9306;SDS011;4691;47.612;7.610;2022-11-02T05:49:46;24.63;;;8.48;;
9306;SDS011;4691;47.612;7.610;2022-11-02T05:52:12;27.50;;;9.98;;
9306;SDS011;4691;47.612;7.610;2022-11-02T05:54:37;22.25;;;9.18;;
9306;SDS011;4691;47.612;7.610;2022-11-02T05:57:02;27.45;;;9.70;;
9306;SDS011;4691;47.612;7.610;2022-11-02T05:59:27;25.38;;;9.93;;
9306;SDS011;4691;47.612;7.610;2022-11-02T06:01:53;25.17;;;9.70;;
9306;SDS011;4691;47.612;7.610;2022-11-02T06:04:18;24.55;;;10.05;;
9306;SDS011;4691;47.612;7.610;2022-11-02T06:06:43;25.65;;;10.05;;
9306;SDS011;4691;47.612;7.610;2022-11-02T06:09:09;22.10;;;9.60;;
9306;SDS011;4691;47.612;7.610;2022-11-02T06:11:35;17.52;;;9.90;;
9306;SDS011;4691;47.612;7.610;2022-11-02T06:14:00;20.23;;;9.13;;
9306;SDS011;4691;47.612;7.610;2022-11-02T06:16:27;21.92;;;10.00;;
9306;SDS011;4691;47.612;7.610;2022-11-02T06:18:53;19.25;;;8.63;;
9306;SDS011;4691;47.612;7.610;2022-11-02T06:21:18;24.17;;;8.82;;
9306;SDS011;4691;47.612;7.610;2022-11-02T06:23:47;19.77;;;8.90;;
9306;SDS011;4691;47.612;7.610;2022-11-02T06:26:13;20.20;;;8.70;;
9306;SDS011;4691;47.612;7.610;2022-11-02T06:28:38;19.70;;;10.30;;
9306;SDS011;4691;47.612;7.610;2022-11-02T06:31:04;20.85;;;11.43;;
9306;SDS011;4691;47.612;7.610;2022-11-02T06:33:29;25.48;;;12.43;;
9306;SDS011;4691;47.612;7.610;2022-11-02T06:35:54;26.00;;;13.63;;
9306;SDS011;4691;47.612;7.610;2022-11-02T06:38:20;27.27;;;13.60;;
9306;SDS011;4691;47.612;7.610;2022-11-02T06:40:53;32.03;;;15.63;;
9306;SDS011;4691;47.612;7.610;2022-11-02T06:43:18;38.63;;;18.08;;
9306;SDS011;4691;47.612;7.610;2022-11-02T06:45:44;36.35;;;16.65;;
9306;SDS011;4691;47.612;7.610;2022-11-02T06:48:10;23.70;;;11.00;;
9306;SDS011;4691;47.612;7.610;2022-11-02T06:50:35;34.58;;;16.90;;
9306;SDS011;4691;47.612;7.610;2022-11-02T06:53:00;29.45;;;14.38;;
9306;SDS011;4691;47.612;7.610;2022-11-02T06:55:26;34.78;;;15.20;;
9306;SDS011;4691;47.612;7.610;2022-11-02T06:57:51;24.23;;;13.02;;
9306;SDS011;4691;47.612;7.610;2022-11-02T07:00:16;30.85;;;13.40;;
9306;SDS011;4691;47.612;7.610;2022-11-02T07:02:42;37.40;;;14.63;;
9306;SDS011;4691;47.612;7.610;2022-11-02T07:05:09;30.88;;;12.52;;
9306;SDS011;4691;47.612;7.610;2022-11-02T07:07:34;35.38;;;14.98;;
9306;SDS011;4691;47.612;7.610;2022-11-02T07:09:59;26.27;;;11.20;;
9306;SDS011;4691;47.612;7.610;2022-11-02T07:12:25;45.88;;;16.63;;
9306;SDS011;4691;47.612;7.610;2022-11-02T07:14:50;38.47;;;16.73;;
9306;SDS011;4691;47.612;7.610;2022-11-02T07:17:15;44.30;;;16.60;;
9306;SDS011;4691;47.612;7.610;2022-11-02T07:19:41;64.25;;;22.23;;
9306;SDS011;4691;47.612;7.610;2022-11-02T07:22:06;36.70;;;18.05;;
9306;SDS011;4691;47.612;7.610;2022-11-02T07:24:32;40.80;;;17.30;;
9306;SDS011;4691;47.612;7.610;2022-11-02T07:26:57;45.80;;;16.70;;
9306;SDS011;4691;47.612;7.610;2022-11-02T07:29:22;41.05;;;14.90;;
9306;SDS011;4691;47.612;7.610;2022-11-02T07:31:47;38.53;;;16.67;;
9306;SDS011;4691;47.612;7.610;2022-11-02T07:34:13;45.45;;;18.60;;
9306;SDS011;4691;47.612;7.610;2022-11-02T07:36:39;40.25;;;17.10;;
9306;SDS011;4691;47.612;7.610;2022-11-02T07:39:04;36.15;;;16.92;;
9306;SDS011;4691;47.612;7.610;2022-11-02T07:41:31;40.97;;;16.05;;
9306;SDS011;4691;47.612;7.610;2022-11-02T07:43:57;60.25;;;21.67;;
9306;SDS011;4691;47.612;7.610;2022-11-02T07:46:22;59.08;;;23.48;;
9306;SDS011;4691;47.612;7.610;2022-11-02T07:48:47;48.60;;;19.35;;
9306;SDS011;4691;47.612;7.610;2022-11-02T07:51:12;36.33;;;14.73;;
9306;SDS011;4691;47.612;7.610;2022-11-02T07:53:38;41.30;;;14.57;;
9306;SDS011;4691;47.612;7.610;2022-11-02T07:56:03;43.85;;;14.88;;
9306;SDS011;4691;47.612;7.610;2022-11-02T07:58:29;29.58;;;11.27;;
9306;SDS011;4691;47.612;7.610;2022-11-02T08:00:56;26.90;;;11.73;;
9306;SDS011;4691;47.612;7.610;2022-11-02T08:03:22;29.98;;;9.90;;
9306;SDS011;4691;47.612;7.610;2022-11-02T08:05:47;29.95;;;9.57;;
9306;SDS011;4691;47.612;7.610;2022-11-02T08:08:14;26.63;;;9.65;;
9306;SDS011;4691;47.612;7.610;2022-11-02T08:10:42;33.35;;;9.35;;
9306;SDS011;4691;47.612;7.610;2022-11-02T08:13:08;25.50;;;8.88;;
9306;SDS011;4691;47.612;7.610;2022-11-02T08:15:35;29.52;;;8.27;;
9306;SDS011;4691;47.612;7.610;2022-11-02T08:18:02;18.42;;;7.53;;
9306;SDS011;4691;47.612;7.610;2022-11-02T08:20:29;24.75;;;7.70;;
9306;SDS011;4691;47.612;7.610;2022-11-02T08:22:55;24.13;;;7.47;;
9306;SDS011;4691;47.612;7.610;2022-11-02T08:25:20;22.42;;;6.70;;
9306;SDS011;4691;47.612;7.610;2022-11-02T08:27:45;23.73;;;4.50;;
9306;SDS011;4691;47.612;7.610;2022-11-02T08:30:11;17.80;;;4.57;;
9306;SDS011;4691;47.612;7.610;2022-11-02T08:32:36;23.05;;;5.60;;
9306;SDS011;4691;47.612;7.610;2022-11-02T08:35:02;19.90;;;4.32;;
9306;SDS011;4691;47.612;7.610;2022-11-02T08:37:28;13.63;;;3.97;;
9306;SDS011;4691;47.612;7.610;2022-11-02T08:39:53;15.68;;;3.88;;
9306;SDS011;4691;47.612;7.610;2022-11-02T08:42:19;21.00;;;5.00;;
9306;SDS011;4691;47.612;7.610;2022-11-02T08:44:44;13.23;;;3.80;;
9306;SDS011;4691;47.612;7.610;2022-11-02T08:47:09;16.88;;;4.53;;
9306;SDS011;4691;47.612;7.610;2022-11-02T08:49:35;15.52;;;3.97;;
9306;SDS011;4691;47.612;7.610;2022-11-02T08:52:00;15.50;;;4.10;;
9306;SDS011;4691;47.612;7.610;2022-11-02T08:54:25;18.23;;;4.63;;
9306;SDS011;4691;47.612;7.610;2022-11-02T08:56:51;14.10;;;4.07;;
9306;SDS011;4691;47.612;7.610;2022-11-02T08:59:16;17.75;;;4.00;;
9306;SDS011;4691;47.612;7.610;2022-11-02T09:01:41;15.82;;;3.80;;
9306;SDS011;4691;47.612;7.610;2022-11-02T09:04:06;14.52;;;3.60;;
9306;SDS011;4691;47.612;7.610;2022-11-02T09:06:32;14.65;;;3.40;;
9306;SDS011;4691;47.612;7.610;2022-11-02T09:08:57;18.42;;;3.90;;
9306;SDS011;4691;47.612;7.610;2022-11-02T09:11:22;14.65;;;3.20;;
9306;SDS011;4691;47.612;7.610;2022-11-02T09:13:48;21.75;;;4.38;;
9306;SDS011;4691;47.612;7.610;2022-11-02T09:16:13;14.20;;;3.58;;
9306;SDS011;4691;47.612;7.610;2022-11-02T09:18:38;12.00;;;3.03;;
9306;SDS011;4691;47.612;7.610;2022-11-02T09:21:04;19.90;;;3.78;;
9306;SDS011;4691;47.612;7.610;2022-11-02T09:23:30;12.82;;;3.33;;
9306;SDS011;4691;47.612;7.610;2022-11-02T09:25:56;17.73;;;3.53;;
9306;SDS011;4691;47.612;7.610;2022-11-02T09:28:22;13.35;;;3.50;;
9306;SDS011;4691;47.612;7.610;2022-11-02T09:30:47;18.17;;;3.33;;
9306;SDS011;4691;47.612;7.610;2022-11-02T09:33:13;12.60;;;3.63;;
9306;SDS011;4691;47.612;7.610;2022-11-02T09:35:44;12.70;;;3.92;;
9306;SDS011;4691;47.612;7.610;2022-11-02T09:38:11;17.02;;;3.75;;
9306;SDS011;4691;47.612;7.610;2022-11-02T09:40:37;14.85;;;3.67;;
9306;SDS011;4691;47.612;7.610;2022-11-02T09:43:27;13.30;;;3.65;;
9306;SDS011;4691;47.612;7.610;2022-11-02T09:46:05;15.10;;;3.58;;
9306;SDS011;4691;47.612;7.610;2022-11-02T09:48:40;20.67;;;3.47;;
9306;SDS011;4691;47.612;7.610;2022-11-02T09:51:18;19.42;;;4.32;;
9306;SDS011;4691;47.612;7.610;2022-11-02T09:54:11;17.30;;;3.58;;
9306;SDS011;4691;47.612;7.610;2022-11-02T09:59:09;20.67;;;3.77;;
9306;SDS011;4691;47.612;7.610;2022-11-02T10:09:42;19.73;;;5.30;;
9306;SDS011;4691;47.612;7.610;2022-11-02T10:12:25;14.13;;;5.18;;
9306;SDS011;4691;47.612;7.610;2022-11-02T10:15:02;29.05;;;9.57;;
9306;SDS011;4691;47.612;7.610;2022-11-02T10:17:29;42.17;;;12.02;;
9306;SDS011;4691;47.612;7.610;2022-11-02T10:20:01;12.07;;;2.95;;
9306;SDS011;4691;47.612;7.610;2022-11-02T10:22:32;16.67;;;4.30;;
9306;SDS011;4691;47.612;7.610;2022-11-02T10:25:03;16.30;;;3.47;;
9306;SDS011;4691;47.612;7.610;2022-11-02T10:27:32;15.73;;;3.05;;
9306;SDS011;4691;47.612;7.610;2022-11-02T10:30:13;16.88;;;3.55;;
9306;SDS011;4691;47.612;7.610;2022-11-02T10:32:40;22.40;;;3.50;;
9306;SDS011;4691;47.612;7.610;2022-11-02T10:35:17;16.27;;;3.58;;
9306;SDS011;4691;47.612;7.610;2022-11-02T10:41:04;15.85;;;3.78;;
9306;SDS011;4691;47.612;7.610;2022-11-02T10:52:33;15.20;;;3.33;;
9306;SDS011;4691;47.612;7.610;2022-11-02T10:55:00;17.23;;;3.10;;
9306;SDS011;4691;47.612;7.610;2022-11-02T10:57:27;17.88;;;4.10;;
9306;SDS011;4691;47.612;7.610;2022-11-02T11:03:09;17.77;;;3.40;;
9306;SDS011;4691;47.612;7.610;2022-11-02T11:05:58;10.38;;;3.33;;
9306;SDS011;4691;47.612;7.610;2022-11-02T11:13:37;12.65;;;3.00;;
9306;SDS011;4691;47.612;7.610;2022-11-02T11:16:04;18.85;;;3.45;;
9306;SDS011;4691;47.612;7.610;2022-11-02T11:18:30;15.18;;;2.80;;
9306;SDS011;4691;47.612;7.610;2022-11-02T11:20:56;16.20;;;2.88;;
9306;SDS011;4691;47.612;7.610;2022-11-02T11:23:24;14.10;;;3.88;;
9306;SDS011;4691;47.612;7.610;2022-11-02T11:26:00;18.00;;;3.10;;
9306;SDS011;4691;47.612;7.610;2022-11-02T11:33:29;13.13;;;3.03;;
9306;SDS011;4691;47.612;7.610;2022-11-02T11:35:55;14.88;;;2.72;;
9306;SDS011;4691;47.612;7.610;2022-11-02T11:38:21;13.82;;;2.65;;
9306;SDS011;4691;47.612;7.610;2022-11-02T11:40:51;10.85;;;2.75;;
9306;SDS011;4691;47.612;7.610;2022-11-02T11:43:19;14.48;;;3.58;;
9306;SDS011;4691;47.612;7.610;2022-11-02T11:45:58;11.93;;;2.90;;
9306;SDS011;4691;47.612;7.610;2022-11-02T11:48:29;15.93;;;3.08;;
9306;SDS011;4691;47.612;7.610;2022-11-02T11:51:02;11.25;;;2.38;;
9306;SDS011;4691;47.612;7.610;2022-11-02T11:53:28;15.20;;;3.17;;
9306;SDS011;4691;47.612;7.610;2022-11-02T11:55:55;12.70;;;3.15;;
9306;SDS011;4691;47.612;7.610;2022-11-02T11:58:27;9.95;;;2.35;;
9306;SDS011;4691;47.612;7.610;2022-11-02T12:01:12;13.60;;;4.25;;
9306;SDS011;4691;47.612;7.610;2022-11-02T12:03:51;11.57;;;2.60;;
9306;SDS011;4691;47.612;7.610;2022-11-02T12:09:19;13.20;;;2.80;;
9306;SDS011;4691;47.612;7.610;2022-11-02T12:25:11;9.30;;;2.42;;
9306;SDS011;4691;47.612;7.610;2022-11-02T12:27:51;9.48;;;2.53;;
9306;SDS011;4691;47.612;7.610;2022-11-02T12:30:45;14.23;;;2.63;;
9306;SDS011;4691;47.612;7.610;2022-11-02T12:33:56;11.85;;;2.85;;
9306;SDS011;4691;47.612;7.610;2022-11-02T12:39:07;9.32;;;2.58;;
9306;SDS011;4691;47.612;7.610;2022-11-02T12:45:25;7.35;;;2.30;;
9306;SDS011;4691;47.612;7.610;2022-11-02T12:47:48;10.57;;;2.20;;
9306;SDS011;4691;47.612;7.610;2022-11-02T12:55:56;14.63;;;2.85;;
9306;SDS011;4691;47.612;7.610;2022-11-02T12:58:28;9.77;;;2.13;;
9306;SDS011;4691;47.612;7.610;2022-11-02T13:00:57;14.43;;;2.90;;
9306;SDS011;4691;47.612;7.610;2022-11-02T13:03:46;12.68;;;2.65;;
9306;SDS011;4691;47.612;7.610;2022-11-02T13:06:18;11.70;;;2.60;;
9306;SDS011;4691;47.612;7.610;2022-11-02T13:08:53;14.73;;;2.60;;
9306;SDS011;4691;47.612;7.610;2022-11-02T13:11:28;9.05;;;2.50;;
9306;SDS011;4691;47.612;7.610;2022-11-02T13:13:58;10.00;;;2.25;;
9306;SDS011;4691;47.612;7.610;2022-11-02T13:16:32;12.73;;;2.50;;
9306;SDS011;4691;47.612;7.610;2022-11-02T13:19:03;12.38;;;2.53;;
9306;SDS011;4691;47.612;7.610;2022-11-02T13:21:36;7.63;;;1.98;;
9306;SDS011;4691;47.612;7.610;2022-11-02T13:24:08;10.63;;;2.75;;
9306;SDS011;4691;47.612;7.610;2022-11-02T13:26:38;12.55;;;2.70;;
9306;SDS011;4691;47.612;7.610;2022-11-02T13:31:49;9.05;;;2.20;;
9306;SDS011;4691;47.612;7.610;2022-11-02T13:34:39;8.52;;;2.30;;
9306;SDS011;4691;47.612;7.610;2022-11-02T13:39:59;17.02;;;3.03;;
9306;SDS011;4691;47.612;7.610;2022-11-02T13:50:31;9.55;;;2.13;;
9306;SDS011;4691;47.612;7.610;2022-11-02T13:53:02;9.38;;;2.33;;
9306;SDS011;4691;47.612;7.610;2022-11-02T13:55:43;9.82;;;2.33;;
9306;SDS011;4691;47.612;7.610;2022-11-02T13:58:24;8.97;;;2.10;;
9306;SDS011;4691;47.612;7.610;2022-11-02T14:00:52;10.70;;;2.63;;
9306;SDS011;4691;47.612;7.610;2022-11-02T14:06:42;15.30;;;2.70;;
9306;SDS011;4691;47.612;7.610;2022-11-02T14:09:16;7.93;;;2.60;;
9306;SDS011;4691;47.612;7.610;2022-11-02T14:11:52;14.38;;;2.95;;
9306;SDS011;4691;47.612;7.610;2022-11-02T14:14:37;11.63;;;2.20;;
9306;SDS011;4691;47.612;7.610;2022-11-02T14:17:09;8.90;;;2.20;;
9306;SDS011;4691;47.612;7.610;2022-11-02T14:22:12;11.65;;;2.60;;
9306;SDS011;4691;47.612;7.610;2022-11-02T14:32:18;9.68;;;2.42;;
9306;SDS011;4691;47.612;7.610;2022-11-02T14:35:00;10.90;;;2.60;;
9306;SDS011;4691;47.612;7.610;2022-11-02T14:48:51;13.15;;;2.50;;
9306;SDS011;4691;47.612;7.610;2022-11-02T14:51:23;7.75;;;2.63;;
9306;SDS011;4691;47.612;7.610;2022-11-02T14:53:57;12.70;;;2.60;;
9306;SDS011;4691;47.612;7.610;2022-11-02T14:56:45;11.82;;;2.80;;
9306;SDS011;4691;47.612;7.610;2022-11-02T14:59:35;9.43;;;3.10;;
9306;SDS011;4691;47.612;7.610;2022-11-02T15:02:08;13.98;;;2.88;;
9306;SDS011;4691;47.612;7.610;2022-11-02T15:05:18;11.48;;;2.80;;
9306;SDS011;4691;47.612;7.610;2022-11-02T15:07:48;17.65;;;2.65;;
9306;SDS011;4691;47.612;7.610;2022-11-02T15:12:42;16.77;;;3.35;;
9306;SDS011;4691;47.612;7.610;2022-11-02T15:18:15;8.70;;;2.17;;
9306;SDS011;4691;47.612;7.610;2022-11-02T15:20:44;12.20;;;2.90;;
9306;SDS011;4691;47.612;7.610;2022-11-02T15:25:38;12.02;;;3.05;;
9306;SDS011;4691;47.612;7.610;2022-11-02T15:28:06;12.35;;;2.47;;
9306;SDS011;4691;47.612;7.610;2022-11-02T15:30:49;11.98;;;2.58;;
9306;SDS011;4691;47.612;7.610;2022-11-02T15:33:30;12.63;;;2.78;;
9306;SDS011;4691;47.612;7.610;2022-11-02T15:35:58;10.60;;;2.78;;
9306;SDS011;4691;47.612;7.610;2022-11-02T15:38:26;9.10;;;2.78;;
9306;SDS011;4691;47.612;7.610;2022-11-02T15:44:15;19.30;;;3.22;;
9306;SDS011;4691;47.612;7.610;2022-11-02T15:55:58;16.05;;;2.88;;
9306;SDS011;4691;47.612;7.610;2022-11-02T15:58:38;12.77;;;3.33;;
9306;SDS011;4691;47.612;7.610;2022-11-02T16:01:21;15.38;;;3.10;;
9306;SDS011;4691;47.612;7.610;2022-11-02T16:03:52;16.58;;;4.38;;
9306;SDS011;4691;47.612;7.610;2022-11-02T16:08:53;10.50;;;4.28;;
9306;SDS011;4691;47.612;7.610;2022-11-02T16:11:21;17.45;;;6.25;;
9306;SDS011;4691;47.612;7.610;2022-11-02T16:13:46;16.48;;;4.65;;
9306;SDS011;4691;47.612;7.610;2022-11-02T16:16:13;17.15;;;3.72;;
9306;SDS011;4691;47.612;7.610;2022-11-02T16:18:41;11.27;;;3.63;;
9306;SDS011;4691;47.612;7.610;2022-11-02T16:21:11;13.13;;;3.50;;
9306;SDS011;4691;47.612;7.610;2022-11-02T16:23:40;15.55;;;3.60;;
9306;SDS011;4691;47.612;7.610;2022-11-02T16:26:13;13.30;;;4.25;;
9306;SDS011;4691;47.612;7.610;2022-11-02T16:28:45;15.43;;;4.30;;
9306;SDS011;4691;47.612;7.610;2022-11-02T16:31:23;19.00;;;4.33;;
9306;SDS011;4691;47.612;7.610;2022-11-02T16:33:55;10.43;;;4.03;;
9306;SDS011;4691;47.612;7.610;2022-11-02T16:36:23;12.85;;;3.67;;
9306;SDS011;4691;47.612;7.610;2022-11-02T16:38:57;16.90;;;4.38;;
9306;SDS011;4691;47.612;7.610;2022-11-02T16:41:30;20.67;;;4.40;;
9306;SDS011;4691;47.612;7.610;2022-11-02T16:43:57;15.20;;;4.28;;
9306;SDS011;4691;47.612;7.610;2022-11-02T16:46:30;12.05;;;4.10;;
9306;SDS011;4691;47.612;7.610;2022-11-02T16:51:35;15.10;;;4.35;;
9306;SDS011;4691;47.612;7.610;2022-11-02T16:54:17;20.15;;;8.30;;
9306;SDS011;4691;47.612;7.610;2022-11-02T16:56:49;17.30;;;7.88;;
9306;SDS011;4691;47.612;7.610;2022-11-02T16:59:15;21.30;;;8.35;;
9306;SDS011;4691;47.612;7.610;2022-11-02T17:01:41;21.13;;;7.35;;
9306;SDS011;4691;47.612;7.610;2022-11-02T17:04:21;24.75;;;11.23;;
9306;SDS011;4691;47.612;7.610;2022-11-02T17:06:49;21.20;;;8.27;;
9306;SDS011;4691;47.612;7.610;2022-11-02T17:11:45;18.20;;;6.45;;
9306;SDS011;4691;47.612;7.610;2022-11-02T17:14:12;21.33;;;7.57;;
9306;SDS011;4691;47.612;7.610;2022-11-02T17:16:49;14.05;;;5.82;;
9306;SDS011;4691;47.612;7.610;2022-11-02T17:22:04;16.67;;;5.88;;
9306;SDS011;4691;47.612;7.610;2022-11-02T17:24:35;15.73;;;5.55;;
9306;SDS011;4691;47.612;7.610;2022-11-02T17:29:41;19.15;;;7.50;;
9306;SDS011;4691;47.612;7.610;2022-11-02T17:32:10;17.63;;;7.00;;
9306;SDS011;4691;47.612;7.610;2022-11-02T17:34:38;15.95;;;6.32;;
9306;SDS011;4691;47.612;7.610;2022-11-02T17:37:19;17.80;;;7.25;;
9306;SDS011;4691;47.612;7.610;2022-11-02T17:39:45;19.35;;;7.43;;
9306;SDS011;4691;47.612;7.610;2022-11-02T17:42:10;20.27;;;8.23;;
9306;SDS011;4691;47.612;7.610;2022-11-02T17:44:55;23.30;;;9.50;;
9306;SDS011;4691;47.612;7.610;2022-11-02T17:47:21;20.75;;;8.77;;
9306;SDS011;4691;47.612;7.610;2022-11-02T17:49:46;30.42;;;10.20;;
9306;SDS011;4691;47.612;7.610;2022-11-02T17:52:12;30.08;;;8.63;;
9306;SDS011;4691;47.612;7.610;2022-11-02T17:54:40;23.05;;;7.32;;